Time;durP1;ratioP1;P1;durP2;ratioP2;P2;SDS_P1;SDS_P2;PMS_P1;PMS_P2;Temp;Humidity;BMP_temperature;BMP_pressure;BME280_temperature;BME280_humidity;BME280_pressure;Samples;Min_cycle;Max_cycle;Signal;HPM_P1;HPM_P2
2022/08/17 00:00:15;;;;;;;2.03;1.90;;;;;;;;;;5077699;28;20198;-80
2022/08/17 00:03:07;;;;;;;1.97;1.87;;;;;;;;;;5076340;28;20201;-80
2022/08/17 00:05:39;;;;;;;1.30;1.30;;;;;;;;;;5074385;28;20378;-80
2022/08/17 00:08:07;;;;;;;1.60;1.60;;;;;;;;;;5084705;28;20189;-80
2022/08/17 00:10:37;;;;;;;4.47;4.13;;;;;;;;;;5076691;28;20204;-80
2022/08/17 00:13:07;;;;;;;9.03;6.37;;;;;;;;;;5075987;28;20212;-79
2022/08/17 00:15:36;;;;;;;1.30;1.30;;;;;;;;;;5092344;28;20256;-80
2022/08/17 00:18:04;;;;;;;5.73;3.80;;;;;;;;;;5076374;28;20213;-80
2022/08/17 00:20:53;;;;;;;5.33;4.97;;;;;;;;;;5074851;28;20189;-79
2022/08/17 00:23:21;;;;;;;22.63;17.37;;;;;;;;;;5058675;28;20205;-80
2022/08/17 00:25:51;;;;;;;6.90;6.30;;;;;;;;;;5076645;28;20211;-79
2022/08/17 00:28:20;;;;;;;26.53;16.97;;;;;;;;;;5075993;28;20194;-79
2022/08/17 00:30:50;;;;;;;23.37;18.70;;;;;;;;;;5093222;28;20214;-80
2022/08/17 00:33:22;;;;;;;22.00;15.60;;;;;;;;;;5093706;28;20246;-80
2022/08/17 00:35:51;;;;;;;15.67;11.53;;;;;;;;;;5084010;28;20301;-80
2022/08/17 00:38:20;;;;;;;11.03;8.67;;;;;;;;;;5073388;28;20211;-79
2022/08/17 00:40:49;;;;;;;2.63;2.47;;;;;;;;;;5094151;28;20212;-79
2022/08/17 00:43:22;;;;;;;4.77;4.37;;;;;;;;;;5071498;28;20244;-79
2022/08/17 00:45:50;;;;;;;14.07;8.47;;;;;;;;;;5065168;28;20213;-79
2022/08/17 00:48:19;;;;;;;8.27;6.80;;;;;;;;;;5074659;28;20203;-80
2022/08/17 00:50:59;;;;;;;5.40;4.00;;;;;;;;;;5072906;28;20212;-80
2022/08/17 00:53:29;;;;;;;8.83;4.67;;;;;;;;;;5072104;28;20246;-80
2022/08/17 00:55:58;;;;;;;2.20;2.10;;;;;;;;;;5059121;28;20288;-80
2022/08/17 00:58:28;;;;;;;0.40;0.40;;;;;;;;;;5072086;28;20268;-79
2022/08/17 01:01:04;;;;;;;4.90;4.53;;;;;;;;;;5070213;28;20255;-79
2022/08/17 01:03:33;;;;;;;2.50;2.40;;;;;;;;;;5085688;28;20204;-79
2022/08/17 01:06:03;;;;;;;1.40;1.40;;;;;;;;;;5070959;28;20194;-79
2022/08/17 01:08:32;;;;;;;3.40;3.17;;;;;;;;;;5085603;28;20233;-79
2022/08/17 01:11:01;;;;;;;11.57;4.80;;;;;;;;;;5074618;28;20202;-79
2022/08/17 01:13:32;;;;;;;6.53;3.20;;;;;;;;;;5057463;28;20205;-79
2022/08/17 01:16:09;;;;;;;2.20;1.63;;;;;;;;;;5063491;28;20203;-79
2022/08/17 01:18:38;;;;;;;14.60;7.37;;;;;;;;;;5071895;28;20276;-79
2022/08/17 01:21:11;;;;;;;0.87;0.87;;;;;;;;;;5066133;28;20197;-79
2022/08/17 01:23:42;;;;;;;3.13;2.93;;;;;;;;;;5093105;28;20218;-79
2022/08/17 01:26:10;;;;;;;6.40;3.07;;;;;;;;;;5065773;28;20215;-79
2022/08/17 01:28:39;;;;;;;2.20;1.97;;;;;;;;;;5074202;28;20201;-79
2022/08/17 01:31:23;;;;;;;4.30;3.83;;;;;;;;;;5071620;28;20198;-79
2022/08/17 01:33:52;;;;;;;11.67;6.23;;;;;;;;;;5067687;28;20301;-80
2022/08/17 01:36:20;;;;;;;2.60;2.40;;;;;;;;;;5056523;28;20219;-80
2022/08/17 01:38:50;;;;;;;1.83;1.73;;;;;;;;;;5071898;28;20239;-80
2022/08/17 01:41:20;;;;;;;2.83;2.23;;;;;;;;;;5070672;28;20213;-80
2022/08/17 01:43:51;;;;;;;3.87;3.57;;;;;;;;;;5093077;28;20221;-80
2022/08/17 01:46:22;;;;;;;5.53;4.87;;;;;;;;;;5092843;28;20200;-80
2022/08/17 01:48:50;;;;;;;3.57;3.27;;;;;;;;;;5072082;28;20196;-80
2022/08/17 01:51:19;;;;;;;19.20;12.60;;;;;;;;;;5069533;28;20202;-79
2022/08/17 01:53:49;;;;;;;4.47;4.07;;;;;;;;;;5055238;28;20198;-80
2022/08/17 01:56:20;;;;;;;12.73;11.30;;;;;;;;;;5070231;28;20201;-79
2022/08/17 01:58:49;;;;;;;3.77;3.17;;;;;;;;;;5085415;28;20223;-79
2022/08/17 02:01:18;;;;;;;6.17;5.67;;;;;;;;;;5071531;28;20202;-79
2022/08/17 02:03:47;;;;;;;9.27;7.63;;;;;;;;;;5065115;28;20292;-80
2022/08/17 02:06:29;;;;;;;25.77;17.10;;;;;;;;;;5054306;28;20236;-80
2022/08/17 02:08:59;;;;;;;14.63;8.37;;;;;;;;;;5073830;28;20198;-80
2022/08/17 02:11:32;;;;;;;20.77;14.60;;;;;;;;;;5074520;28;20299;-80
2022/08/17 02:14:01;;;;;;;27.77;18.40;;;;;;;;;;5070977;28;20217;-80
2022/08/17 02:16:31;;;;;;;11.53;8.17;;;;;;;;;;5083740;28;20206;-80
2022/08/17 02:19:06;;;;;;;17.13;9.37;;;;;;;;;;5071997;28;20246;-80
2022/08/17 02:21:35;;;;;;;12.40;10.83;;;;;;;;;;5064787;28;20222;-80
2022/08/17 02:24:05;;;;;;;9.20;5.60;;;;;;;;;;5079363;28;20195;-80
2022/08/17 02:26:34;;;;;;;7.33;6.70;;;;;;;;;;5072307;28;20202;-79
2022/08/17 02:29:03;;;;;;;0.40;0.40;;;;;;;;;;5093279;28;20204;-80
2022/08/17 02:31:32;;;;;;;6.90;4.97;;;;;;;;;;5091897;28;20190;-80
2022/08/17 02:34:00;;;;;;;1.93;1.93;;;;;;;;;;5074817;28;20218;-79
2022/08/17 02:36:33;;;;;;;2.67;2.53;;;;;;;;;;5078997;28;20219;-80
2022/08/17 02:39:01;;;;;;;2.87;2.67;;;;;;;;;;5073345;28;20217;-80
2022/08/17 02:41:30;;;;;;;0.87;0.87;;;;;;;;;;5075389;28;20207;-80
2022/08/17 02:44:00;;;;;;;2.93;2.37;;;;;;;;;;5078734;28;20244;-79
2022/08/17 02:46:29;;;;;;;2.33;2.23;;;;;;;;;;5064758;28;20198;-80
2022/08/17 02:48:57;;;;;;;43.87;33.80;;;;;;;;;;5078280;28;20203;-79
2022/08/17 02:51:26;;;;;;;32.57;25.60;;;;;;;;;;5082324;28;20193;-80
2022/08/17 02:53:55;;;;;;;51.83;39.10;;;;;;;;;;5077884;28;20201;-79
2022/08/17 02:56:43;;;;;;;36.17;29.27;;;;;;;;;;5058709;28;20217;-80
2022/08/17 02:59:13;;;;;;;19.13;14.40;;;;;;;;;;5091832;28;20219;-80
2022/08/17 03:01:41;;;;;;;28.90;15.57;;;;;;;;;;5077921;28;20205;-80
2022/08/17 03:04:11;;;;;;;45.00;37.70;;;;;;;;;;5061616;28;20202;-80
2022/08/17 03:06:39;;;;;;;74.03;44.40;;;;;;;;;;5072124;28;20205;-81
2022/08/17 03:09:09;;;;;;;41.03;22.13;;;;;;;;;;5078350;28;20204;-83
2022/08/17 03:11:38;;;;;;;0.20;0.20;;;;;;;;;;5064752;28;20213;-81
2022/08/17 03:14:06;;;;;;;0.20;0.20;;;;;;;;;;5064626;28;20197;-81
2022/08/17 03:16:36;;;;;;;0.30;0.30;;;;;;;;;;5093835;28;20199;-81
2022/08/17 03:19:06;;;;;;;1.13;0.80;;;;;;;;;;5095100;28;20228;-81
2022/08/17 03:21:35;;;;;;;0.40;0.40;;;;;;;;;;5077140;28;20201;-81
2022/08/17 03:24:03;;;;;;;0.30;0.30;;;;;;;;;;5095162;28;20206;-81
2022/08/17 03:26:36;;;;;;;0.30;0.30;;;;;;;;;;5094945;28;20207;-81
2022/08/17 03:29:04;;;;;;;0.20;0.20;;;;;;;;;;5094765;28;20216;-81
2022/08/17 03:31:33;;;;;;;0.30;0.30;;;;;;;;;;5075170;28;20207;-81
2022/08/17 03:34:05;;;;;;;0.30;0.30;;;;;;;;;;5083031;28;20283;-82
2022/08/17 03:36:34;;;;;;;0.20;0.20;;;;;;;;;;5095077;28;20225;-82
2022/08/17 03:39:03;;;;;;;0.30;0.30;;;;;;;;;;5076741;28;20210;-82
2022/08/17 03:41:31;;;;;;;0.20;0.20;;;;;;;;;;5074103;28;20270;-81
2022/08/17 03:44:00;;;;;;;0.20;0.20;;;;;;;;;;5075340;28;20313;-82
2022/08/17 03:57:35;;;;;;;0.30;0.30;;;;;;;;;;5094819;28;20209;-82
2022/08/17 04:00:04;;;;;;;0.30;0.30;;;;;;;;;;5094665;28;20212;-82
2022/08/17 04:02:34;;;;;;;0.23;0.23;;;;;;;;;;5076390;28;20206;-82
2022/08/17 04:05:04;;;;;;;0.30;0.30;;;;;;;;;;5073092;28;20203;-82
2022/08/17 04:07:32;;;;;;;0.30;0.30;;;;;;;;;;5091383;28;20235;-81
2022/08/17 04:10:01;;;;;;;0.27;0.27;;;;;;;;;;5076666;28;20183;-81
2022/08/17 04:12:29;;;;;;;0.20;0.20;;;;;;;;;;5079852;28;20207;-81
2022/08/17 04:14:58;;;;;;;0.30;0.30;;;;;;;;;;5076475;28;20205;-81
2022/08/17 04:17:29;;;;;;;0.43;0.43;;;;;;;;;;5076607;28;20199;-82
2022/08/17 04:19:57;;;;;;;0.20;0.20;;;;;;;;;;5094427;28;20213;-81
2022/08/17 04:22:27;;;;;;;0.20;0.20;;;;;;;;;;5072631;28;20197;-81
2022/08/17 04:25:02;;;;;;;0.30;0.30;;;;;;;;;;5076102;28;20260;-82
2022/08/17 04:27:30;;;;;;;0.30;0.30;;;;;;;;;;5056314;28;20204;-81
2022/08/17 04:29:59;;;;;;;0.20;0.20;;;;;;;;;;5086686;28;20202;-82
2022/08/17 04:32:27;;;;;;;0.30;0.30;;;;;;;;;;5063432;28;20206;-82
2022/08/17 04:35:18;;;;;;;0.30;0.30;;;;;;;;;;5075801;28;20262;-81
2022/08/17 04:37:48;;;;;;;0.60;0.60;;;;;;;;;;5092869;28;20193;-81
2022/08/17 04:43:04;;;;;;;0.30;0.30;;;;;;;;;;5069741;28;20224;-82
2022/08/17 04:45:33;;;;;;;0.20;0.20;;;;;;;;;;5072432;28;20202;-81
2022/08/17 04:48:01;;;;;;;0.30;0.30;;;;;;;;;;5088293;28;20216;-82
2022/08/17 04:50:30;;;;;;;0.27;0.27;;;;;;;;;;5093843;28;20199;-82
2022/08/17 04:53:00;;;;;;;0.20;0.20;;;;;;;;;;5076030;28;20215;-82
2022/08/17 04:55:29;;;;;;;0.20;0.20;;;;;;;;;;5075914;28;20212;-81
2022/08/17 04:57:57;;;;;;;0.93;0.93;;;;;;;;;;5093347;28;20201;-81
2022/08/17 05:00:26;;;;;;;0.30;0.30;;;;;;;;;;5075261;28;20215;-82
2022/08/17 05:02:55;;;;;;;0.20;0.20;;;;;;;;;;5078741;28;20197;-81
2022/08/17 05:05:25;;;;;;;0.30;0.30;;;;;;;;;;5093466;28;20257;-82
2022/08/17 05:07:54;;;;;;;0.20;0.20;;;;;;;;;;5088593;28;20194;-82
2022/08/17 05:10:25;;;;;;;0.50;0.50;;;;;;;;;;5085486;28;20195;-82
2022/08/17 05:12:58;;;;;;;0.30;0.30;;;;;;;;;;5075334;28;20192;-82
2022/08/17 05:15:27;;;;;;;0.30;0.30;;;;;;;;;;5062143;28;20206;-81
2022/08/17 05:18:00;;;;;;;0.20;0.20;;;;;;;;;;5063507;28;20229;-81
2022/08/17 05:20:29;;;;;;;0.20;0.20;;;;;;;;;;5074974;28;20209;-82
2022/08/17 05:22:59;;;;;;;0.20;0.20;;;;;;;;;;5074942;28;20238;-81
2022/08/17 05:25:30;;;;;;;0.20;0.20;;;;;;;;;;5075465;28;20217;-82
2022/08/17 05:28:01;;;;;;;0.20;0.20;;;;;;;;;;5093450;28;20201;-81
2022/08/17 05:30:30;;;;;;;0.23;0.23;;;;;;;;;;5088709;28;20202;-82
2022/08/17 05:33:00;;;;;;;0.20;0.20;;;;;;;;;;5071859;28;20269;-82
2022/08/17 05:35:30;;;;;;;0.20;0.20;;;;;;;;;;5070611;28;20217;-82
2022/08/17 05:37:58;;;;;;;0.20;0.20;;;;;;;;;;5055375;28;20202;-82
2022/08/17 05:40:28;;;;;;;0.20;0.20;;;;;;;;;;5071570;28;20221;-82
2022/08/17 05:43:09;;;;;;;0.20;0.20;;;;;;;;;;5061936;28;20275;-82
2022/08/17 05:45:39;;;;;;;0.20;0.20;;;;;;;;;;5075381;28;20188;-82
2022/08/17 05:48:23;;;;;;;0.30;0.30;;;;;;;;;;5070001;28;20210;-82
2022/08/17 05:51:14;;;;;;;0.20;0.20;;;;;;;;;;5087575;28;20188;-81
2022/08/17 05:53:46;;;;;;;0.20;0.20;;;;;;;;;;5075630;28;20287;-82
2022/08/17 05:56:20;;;;;;;0.20;0.20;;;;;;;;;;5075171;28;20212;-83
2022/08/17 05:59:02;;;;;;;0.20;0.20;;;;;;;;;;5092961;28;20201;-83
2022/08/17 06:01:46;;;;;;;0.30;0.30;;;;;;;;;;5074985;28;20209;-84
2022/08/17 06:04:17;;;;;;;0.30;0.30;;;;;;;;;;5075326;28;20197;-83
2022/08/17 06:06:48;;;;;;;0.20;0.20;;;;;;;;;;5075222;28;20222;-83
2022/08/17 06:09:24;;;;;;;0.30;0.30;;;;;;;;;;5074517;28;20197;-83
2022/08/17 06:12:04;;;;;;;0.20;0.20;;;;;;;;;;5093220;28;20220;-83
2022/08/17 06:14:43;;;;;;;0.30;0.30;;;;;;;;;;5077576;28;20253;-83
2022/08/17 06:17:13;;;;;;;0.20;0.20;;;;;;;;;;5078409;28;20273;-83
2022/08/17 06:19:44;;;;;;;0.27;0.27;;;;;;;;;;5069669;28;20301;-83
2022/08/17 06:22:14;;;;;;;0.20;0.20;;;;;;;;;;5072278;28;20206;-84
2022/08/17 06:24:46;;;;;;;0.30;0.30;;;;;;;;;;5069391;28;20197;-83
2022/08/17 06:27:19;;;;;;;0.30;0.30;;;;;;;;;;5096276;28;20197;-79
2022/08/17 06:29:51;;;;;;;0.30;0.30;;;;;;;;;;5078704;28;20205;-79
2022/08/17 06:32:19;;;;;;;0.30;0.30;;;;;;;;;;5058852;28;20210;-79
2022/08/17 06:34:48;;;;;;;0.20;0.20;;;;;;;;;;5076627;28;20287;-78
2022/08/17 06:37:31;;;;;;;0.20;0.20;;;;;;;;;;5070929;28;20200;-78
2022/08/17 06:40:04;;;;;;;0.40;0.40;;;;;;;;;;5074298;28;20193;-79
2022/08/17 06:42:39;;;;;;;0.27;0.27;;;;;;;;;;5077875;28;20250;-79
2022/08/17 06:45:29;;;;;;;0.20;0.20;;;;;;;;;;5083971;28;20228;-79
2022/08/17 06:48:01;;;;;;;0.30;0.30;;;;;;;;;;5095442;28;20204;-78
2022/08/17 06:50:35;;;;;;;0.50;0.50;;;;;;;;;;5086364;28;20224;-79
2022/08/17 06:53:06;;;;;;;0.20;0.20;;;;;;;;;;5072118;28;20198;-79
2022/08/17 06:55:42;;;;;;;0.20;0.20;;;;;;;;;;5076107;28;20202;-78
2022/08/17 06:58:14;;;;;;;0.30;0.30;;;;;;;;;;5077356;28;20215;-78
2022/08/17 07:00:45;;;;;;;0.20;0.20;;;;;;;;;;5047685;28;20222;-79
2022/08/17 07:03:19;;;;;;;0.20;0.20;;;;;;;;;;5077855;28;20207;-78
2022/08/17 07:05:50;;;;;;;0.30;0.30;;;;;;;;;;5077388;28;20204;-78
2022/08/17 07:08:20;;;;;;;0.30;0.30;;;;;;;;;;5069767;28;20235;-78
2022/08/17 07:10:56;;;;;;;0.20;0.20;;;;;;;;;;5073198;28;20288;-78
2022/08/17 07:13:30;;;;;;;0.77;0.77;;;;;;;;;;5095465;28;20201;-78
2022/08/17 07:16:04;;;;;;;0.20;0.20;;;;;;;;;;5064377;28;20204;-78
2022/08/17 07:18:33;;;;;;;0.30;0.30;;;;;;;;;;5077617;28;20191;-79
2022/08/17 07:21:07;;;;;;;0.20;0.20;;;;;;;;;;5074141;28;20222;-78
2022/08/17 07:23:40;;;;;;;0.30;0.30;;;;;;;;;;5070341;28;20217;-78
2022/08/17 07:26:12;;;;;;;0.40;0.40;;;;;;;;;;5082027;28;20209;-78
2022/08/17 07:28:43;;;;;;;0.20;0.20;;;;;;;;;;5080458;28;20264;-78
2022/08/17 07:31:15;;;;;;;0.20;0.20;;;;;;;;;;5077178;28;20209;-78
2022/08/17 07:33:59;;;;;;;0.20;0.20;;;;;;;;;;5072484;28;20198;-78
2022/08/17 07:36:32;;;;;;;0.30;0.30;;;;;;;;;;5088244;28;20232;-79
2022/08/17 07:39:01;;;;;;;0.20;0.20;;;;;;;;;;5077413;28;20201;-78
2022/08/17 07:41:32;;;;;;;0.20;0.20;;;;;;;;;;5061957;28;20209;-78
2022/08/17 07:44:22;;;;;;;0.20;0.20;;;;;;;;;;5068517;28;20237;-78
2022/08/17 07:49:39;;;;;;;0.20;0.20;;;;;;;;;;5071748;28;20224;-78
2022/08/17 07:52:10;;;;;;;0.20;0.20;;;;;;;;;;5093350;28;20189;-78
2022/08/17 07:54:58;;;;;;;0.20;0.20;;;;;;;;;;5076119;28;20235;-78
2022/08/17 07:57:30;;;;;;;0.20;0.20;;;;;;;;;;5073727;28;20213;-78
2022/08/17 08:00:12;;;;;;;0.20;0.20;;;;;;;;;;5056702;28;20205;-78
2022/08/17 08:02:46;;;;;;;0.20;0.20;;;;;;;;;;5059054;28;20274;-78
2022/08/17 08:05:18;;;;;;;0.20;0.20;;;;;;;;;;5076651;28;20193;-78
2022/08/17 08:08:20;;;;;;;0.30;0.30;;;;;;;;;;5082369;28;20201;-78
2022/08/17 08:10:58;;;;;;;0.20;0.20;;;;;;;;;;5089853;28;20197;-78
2022/08/17 08:13:28;;;;;;;0.30;0.30;;;;;;;;;;5076072;28;20201;-78
2022/08/17 08:16:13;;;;;;;0.20;0.20;;;;;;;;;;5094015;28;20201;-78
2022/08/17 08:18:45;;;;;;;0.20;0.20;;;;;;;;;;5063042;28;20207;-79
2022/08/17 08:21:28;;;;;;;0.30;0.30;;;;;;;;;;5094574;28;20212;-78
2022/08/17 08:24:01;;;;;;;0.20;0.20;;;;;;;;;;5075564;28;20205;-79
2022/08/17 08:26:32;;;;;;;0.20;0.20;;;;;;;;;;5082863;28;20209;-79
2022/08/17 08:29:08;;;;;;;0.20;0.20;;;;;;;;;;5061563;28;20202;-79
2022/08/17 08:31:44;;;;;;;0.63;0.63;;;;;;;;;;5094214;28;20200;-79
2022/08/17 08:34:22;;;;;;;0.20;0.20;;;;;;;;;;5072386;28;20228;-78
2022/08/17 08:37:15;;;;;;;0.20;0.20;;;;;;;;;;5091484;28;20284;-78
2022/08/17 08:40:03;;;;;;;0.20;0.20;;;;;;;;;;5093385;28;20287;-78
2022/08/17 08:42:37;;;;;;;0.30;0.30;;;;;;;;;;5065339;28;20324;-79
2022/08/17 08:45:10;;;;;;;0.20;0.20;;;;;;;;;;5091708;28;20201;-78
2022/08/17 08:47:49;;;;;;;0.20;0.20;;;;;;;;;;5072586;28;20213;-77
2022/08/17 08:50:25;;;;;;;0.30;0.30;;;;;;;;;;5075891;28;20246;-78
2022/08/17 08:53:22;;;;;;;0.30;0.30;;;;;;;;;;5071582;28;20198;-78
2022/08/17 08:55:53;;;;;;;0.20;0.20;;;;;;;;;;5086603;28;20258;-78
2022/08/17 08:58:25;;;;;;;0.20;0.20;;;;;;;;;;5073242;28;20200;-78
2022/08/17 09:01:14;;;;;;;0.20;0.20;;;;;;;;;;5072003;28;20202;-78
2022/08/17 09:03:54;;;;;;;0.20;0.20;;;;;;;;;;5085287;28;20203;-79
2022/08/17 09:06:47;;;;;;;0.30;0.30;;;;;;;;;;5093122;28;20205;-78
2022/08/17 09:09:20;;;;;;;0.20;0.20;;;;;;;;;;5090447;28;20217;-79
2022/08/17 09:11:51;;;;;;;0.30;0.30;;;;;;;;;;5083968;28;20251;-79
2022/08/17 09:14:35;;;;;;;0.20;0.20;;;;;;;;;;5075144;28;20267;-79
2022/08/17 09:17:15;;;;;;;0.20;0.20;;;;;;;;;;5072031;28;20197;-79
2022/08/17 09:19:49;;;;;;;0.20;0.20;;;;;;;;;;5055343;28;20266;-79
2022/08/17 09:22:24;;;;;;;0.20;0.20;;;;;;;;;;5067801;28;20217;-79
2022/08/17 09:24:55;;;;;;;0.20;0.20;;;;;;;;;;5064816;28;20226;-79
2022/08/17 09:27:27;;;;;;;0.20;0.20;;;;;;;;;;5055054;28;20199;-79
2022/08/17 09:29:59;;;;;;;0.20;0.20;;;;;;;;;;5062918;28;20197;-79
2022/08/17 09:32:32;;;;;;;0.20;0.20;;;;;;;;;;5075158;28;20194;-80
2022/08/17 09:35:09;;;;;;;0.20;0.20;;;;;;;;;;5074527;28;20224;-79
2022/08/17 09:37:48;;;;;;;0.20;0.20;;;;;;;;;;5075415;28;20197;-82
2022/08/17 09:40:19;;;;;;;1.23;1.23;;;;;;;;;;5050423;28;20202;-82
2022/08/17 09:42:50;;;;;;;0.20;0.20;;;;;;;;;;5067392;28;20312;-82
2022/08/17 09:45:28;;;;;;;0.20;0.20;;;;;;;;;;5055187;28;20265;-82
2022/08/17 09:47:58;;;;;;;0.20;0.20;;;;;;;;;;5075104;28;20202;-81
2022/08/17 09:50:35;;;;;;;0.20;0.20;;;;;;;;;;5079338;28;20205;-82
2022/08/17 09:53:24;;;;;;;0.20;0.20;;;;;;;;;;5085256;28;20201;-83
2022/08/17 09:56:03;;;;;;;0.20;0.20;;;;;;;;;;5066825;28;20213;-83
2022/08/17 09:58:37;;;;;;;0.30;0.30;;;;;;;;;;5067655;28;20205;-84
2022/08/17 10:01:16;;;;;;;0.20;0.20;;;;;;;;;;5079673;28;20196;-84
2022/08/17 10:03:54;;;;;;;0.40;0.40;;;;;;;;;;5078416;28;20236;-84
2022/08/17 10:06:25;;;;;;;0.20;0.20;;;;;;;;;;5083353;28;20212;-84
2022/08/17 10:09:05;;;;;;;0.20;0.20;;;;;;;;;;5066112;28;20194;-84
2022/08/17 10:14:21;;;;;;;0.30;0.30;;;;;;;;;;5044257;28;20229;-84
2022/08/17 10:17:16;;;;;;;0.20;0.20;;;;;;;;;;5060778;28;20213;-84
2022/08/17 10:19:49;;;;;;;0.20;0.20;;;;;;;;;;5075559;28;20197;-84
2022/08/17 10:28:17;;;;;;;0.20;0.20;;;;;;;;;;5065768;28;20234;-82
2022/08/17 10:30:49;;;;;;;0.20;0.20;;;;;;;;;;5071571;28;20200;-82
2022/08/17 10:33:22;;;;;;;0.20;0.20;;;;;;;;;;5064295;28;20200;-82
2022/08/17 10:35:53;;;;;;;7.17;6.90;;;;;;;;;;5075058;28;20225;-82
2022/08/17 10:38:29;;;;;;;0.80;0.80;;;;;;;;;;5071686;28;20243;-82
2022/08/17 10:41:02;;;;;;;0.20;0.20;;;;;;;;;;5065462;28;20200;-82
2022/08/17 10:43:52;;;;;;;0.20;0.20;;;;;;;;;;5071158;28;20273;-82
2022/08/17 10:46:51;;;;;;;0.20;0.20;;;;;;;;;;5058353;28;20229;-82
2022/08/17 10:49:28;;;;;;;0.20;0.20;;;;;;;;;;5067751;28;20209;-82
2022/08/17 10:51:57;;;;;;;0.20;0.20;;;;;;;;;;5074742;28;20299;-82
2022/08/17 10:54:37;;;;;;;0.20;0.20;;;;;;;;;;5071957;28;20201;-82
2022/08/17 10:57:32;;;;;;;0.20;0.20;;;;;;;;;;5078866;28;20192;-82
2022/08/17 11:00:01;;;;;;;0.20;0.20;;;;;;;;;;5069877;28;20203;-81
2022/08/17 11:02:32;;;;;;;0.20;0.20;;;;;;;;;;5072100;28;20248;-81
2022/08/17 11:05:10;;;;;;;0.23;0.23;;;;;;;;;;5078017;28;20209;-82
2022/08/17 11:07:46;;;;;;;0.20;0.20;;;;;;;;;;5094530;28;20236;-82
2022/08/17 11:10:25;;;;;;;0.20;0.20;;;;;;;;;;5074437;28;20230;-82
2022/08/17 11:13:00;;;;;;;0.20;0.20;;;;;;;;;;5073831;28;20209;-82
2022/08/17 11:15:37;;;;;;;1.90;1.80;;;;;;;;;;5089070;28;20212;-81
2022/08/17 11:18:18;;;;;;;0.60;0.60;;;;;;;;;;5077746;28;20203;-81
2022/08/17 11:20:58;;;;;;;0.20;0.20;;;;;;;;;;5064321;28;20193;-81
2022/08/17 11:23:40;;;;;;;0.20;0.20;;;;;;;;;;5081387;28;20220;-81
2022/08/17 11:26:21;;;;;;;1.70;1.70;;;;;;;;;;5083739;28;20210;-81
2022/08/17 11:28:55;;;;;;;0.30;0.30;;;;;;;;;;5087401;28;20218;-81
2022/08/17 11:31:29;;;;;;;1.80;1.80;;;;;;;;;;5069252;28;20207;-81
2022/08/17 11:34:08;;;;;;;0.27;0.27;;;;;;;;;;5094989;28;20204;-81
2022/08/17 11:36:55;;;;;;;0.20;0.20;;;;;;;;;;5094693;28;20222;-82
2022/08/17 11:39:34;;;;;;;0.20;0.20;;;;;;;;;;5065925;28;20297;-81
2022/08/17 11:42:05;;;;;;;0.60;0.60;;;;;;;;;;5075764;28;20226;-81
2022/08/17 11:44:50;;;;;;;0.20;0.20;;;;;;;;;;5076811;28;20219;-82
2022/08/17 11:53:26;;;;;;;0.20;0.20;;;;;;;;;;5072924;28;20204;-82
2022/08/17 11:56:06;;;;;;;0.20;0.20;;;;;;;;;;5067631;28;20232;-82
2022/08/17 11:58:39;;;;;;;0.20;0.20;;;;;;;;;;5077709;28;20199;-82
2022/08/17 12:01:10;;;;;;;0.20;0.20;;;;;;;;;;5076345;28;20221;-82
2022/08/17 12:03:45;;;;;;;0.20;0.20;;;;;;;;;;5065456;28;20225;-82
2022/08/17 12:06:41;;;;;;;0.20;0.20;;;;;;;;;;5062480;28;20214;-82
2022/08/17 12:09:12;;;;;;;0.20;0.20;;;;;;;;;;5076446;28;20296;-82
2022/08/17 12:11:43;;;;;;;0.20;0.20;;;;;;;;;;5076734;28;20197;-83
2022/08/17 12:14:34;;;;;;;0.20;0.20;;;;;;;;;;5062887;28;20212;-83
2022/08/17 12:17:26;;;;;;;0.20;0.20;;;;;;;;;;5076029;28;20200;-83
2022/08/17 12:20:10;;;;;;;0.20;0.20;;;;;;;;;;5058368;28;20206;-83
2022/08/17 12:22:44;;;;;;;0.20;0.20;;;;;;;;;;5068994;28;20254;-84
2022/08/17 12:25:17;;;;;;;0.20;0.20;;;;;;;;;;5070284;28;20204;-84
2022/08/17 12:27:50;;;;;;;0.20;0.20;;;;;;;;;;5094133;28;20213;-83
2022/08/17 12:30:36;;;;;;;0.30;0.30;;;;;;;;;;5094313;28;20251;-84
2022/08/17 12:33:12;;;;;;;0.30;0.30;;;;;;;;;;5093920;28;20227;-84
2022/08/17 12:35:57;;;;;;;0.30;0.30;;;;;;;;;;5064875;28;20254;-84
2022/08/17 12:38:27;;;;;;;0.20;0.20;;;;;;;;;;5073133;28;20208;-84
2022/08/17 12:41:24;;;;;;;0.20;0.20;;;;;;;;;;5066905;28;20206;-85
2022/08/17 12:44:00;;;;;;;0.20;0.20;;;;;;;;;;5072135;28;20228;-85
2022/08/17 12:46:29;;;;;;;0.20;0.20;;;;;;;;;;5085979;28;20202;-85
2022/08/17 12:49:12;;;;;;;0.93;0.93;;;;;;;;;;5056758;28;20198;-85
2022/08/17 12:51:45;;;;;;;1.17;1.17;;;;;;;;;;5070109;28;20207;-85
2022/08/17 12:54:29;;;;;;;0.20;0.20;;;;;;;;;;5065833;28;20211;-85
2022/08/17 12:57:00;;;;;;;0.20;0.20;;;;;;;;;;5076016;28;20227;-85
2022/08/17 12:59:31;;;;;;;0.30;0.30;;;;;;;;;;5092661;28;20202;-85
2022/08/17 13:02:01;;;;;;;0.20;0.20;;;;;;;;;;5071643;28;20209;-85
2022/08/17 13:04:31;;;;;;;2.07;1.97;;;;;;;;;;5075219;28;20206;-85
2022/08/17 13:07:00;;;;;;;0.20;0.20;;;;;;;;;;5082429;28;20512;-85
2022/08/17 13:09:29;;;;;;;0.20;0.20;;;;;;;;;;5093436;28;20196;-84
2022/08/17 13:12:03;;;;;;;0.20;0.20;;;;;;;;;;5075786;28;20231;-85
2022/08/17 13:14:35;;;;;;;0.20;0.20;;;;;;;;;;5085827;28;20200;-84
2022/08/17 13:17:04;;;;;;;0.20;0.20;;;;;;;;;;5056079;28;20211;-85
2022/08/17 13:19:47;;;;;;;0.20;0.20;;;;;;;;;;5072143;28;20265;-84
2022/08/17 13:22:17;;;;;;;0.20;0.20;;;;;;;;;;5071175;28;20248;-85
2022/08/17 13:24:52;;;;;;;0.20;0.20;;;;;;;;;;5093293;28;20220;-85
2022/08/17 13:27:22;;;;;;;0.20;0.20;;;;;;;;;;5080592;28;20204;-85
2022/08/17 13:29:52;;;;;;;0.20;0.20;;;;;;;;;;5075588;28;20209;-85
2022/08/17 13:32:22;;;;;;;0.20;0.20;;;;;;;;;;5069082;28;20203;-85
2022/08/17 13:34:56;;;;;;;0.20;0.20;;;;;;;;;;5066856;28;20215;-85
2022/08/17 13:37:56;;;;;;;0.20;0.20;;;;;;;;;;5082905;28;20219;-85
2022/08/17 13:40:32;;;;;;;0.20;0.20;;;;;;;;;;5093176;28;20253;-84
2022/08/17 13:43:02;;;;;;;0.20;0.20;;;;;;;;;;5091246;28;20239;-84
2022/08/17 13:45:36;;;;;;;0.20;0.20;;;;;;;;;;5062661;28;20221;-84
2022/08/17 13:48:13;;;;;;;0.20;0.20;;;;;;;;;;5092807;28;21156;-84
2022/08/17 13:50:46;;;;;;;0.20;0.20;;;;;;;;;;5065078;28;20198;-83
2022/08/17 13:53:20;;;;;;;0.40;0.40;;;;;;;;;;5086124;28;20212;-83
2022/08/17 13:55:51;;;;;;;0.20;0.20;;;;;;;;;;5075606;28;20205;-84
2022/08/17 13:58:20;;;;;;;0.20;0.20;;;;;;;;;;5056413;28;20205;-84
2022/08/17 14:00:50;;;;;;;0.20;0.20;;;;;;;;;;5069240;28;20218;-83
2022/08/17 14:03:19;;;;;;;1.70;1.70;;;;;;;;;;5074875;28;20197;-84
2022/08/17 14:05:50;;;;;;;0.20;0.20;;;;;;;;;;5092752;28;20221;-84
2022/08/17 14:08:20;;;;;;;0.20;0.20;;;;;;;;;;5071851;28;20201;-84
2022/08/17 14:10:50;;;;;;;0.20;0.20;;;;;;;;;;5071462;28;20208;-84
2022/08/17 14:13:20;;;;;;;0.20;0.20;;;;;;;;;;5057522;28;20286;-84
2022/08/17 14:15:48;;;;;;;0.20;0.20;;;;;;;;;;5056119;28;20193;-84
2022/08/17 14:18:24;;;;;;;0.20;0.20;;;;;;;;;;5093153;28;20220;-84
2022/08/17 14:21:14;;;;;;;0.20;0.20;;;;;;;;;;5063545;28;20201;-84
2022/08/17 14:23:42;;;;;;;0.20;0.20;;;;;;;;;;5073273;28;20228;-84
2022/08/17 14:26:22;;;;;;;0.20;0.20;;;;;;;;;;5063959;28;20199;-84
2022/08/17 14:28:51;;;;;;;0.20;0.20;;;;;;;;;;5077608;28;20194;-82
2022/08/17 14:31:26;;;;;;;0.20;0.20;;;;;;;;;;5063351;28;20207;-83
2022/08/17 14:33:54;;;;;;;0.20;0.20;;;;;;;;;;5070441;28;20205;-81
2022/08/17 14:36:24;;;;;;;0.20;0.20;;;;;;;;;;5088694;28;20218;-82
2022/08/17 14:38:53;;;;;;;0.20;0.20;;;;;;;;;;5061706;28;20294;-81
2022/08/17 14:41:22;;;;;;;0.20;0.20;;;;;;;;;;5090010;28;20213;-81
2022/08/17 14:43:52;;;;;;;2.23;2.20;;;;;;;;;;5074987;28;20235;-81
2022/08/17 14:46:21;;;;;;;0.20;0.20;;;;;;;;;;5060329;28;20221;-82
2022/08/17 14:48:52;;;;;;;0.20;0.20;;;;;;;;;;5074032;28;20208;-82
2022/08/17 14:51:28;;;;;;;0.53;0.53;;;;;;;;;;5074884;28;20267;-81
2022/08/17 14:53:57;;;;;;;0.20;0.20;;;;;;;;;;5075248;28;20220;-81
2022/08/17 14:56:26;;;;;;;0.20;0.20;;;;;;;;;;5072479;28;20194;-81
2022/08/17 14:58:58;;;;;;;0.20;0.20;;;;;;;;;;5071293;28;20209;-81
2022/08/17 15:01:27;;;;;;;0.20;0.20;;;;;;;;;;5065987;28;20239;-81
2022/08/17 15:03:56;;;;;;;0.30;0.30;;;;;;;;;;5078342;28;20211;-81
2022/08/17 15:06:26;;;;;;;0.93;0.93;;;;;;;;;;5081921;28;20211;-81
2022/08/17 15:08:54;;;;;;;0.20;0.20;;;;;;;;;;5078455;28;20203;-81
2022/08/17 15:11:23;;;;;;;0.40;0.40;;;;;;;;;;5082290;28;20231;-82
2022/08/17 15:13:51;;;;;;;0.20;0.20;;;;;;;;;;5077565;28;20206;-81
2022/08/17 15:16:21;;;;;;;0.40;0.40;;;;;;;;;;5070051;28;20229;-81
2022/08/17 15:18:51;;;;;;;0.20;0.20;;;;;;;;;;5072080;28;20195;-81
2022/08/17 15:21:19;;;;;;;0.20;0.20;;;;;;;;;;5068828;28;20202;-81
2022/08/17 15:23:49;;;;;;;7.23;6.90;;;;;;;;;;5073761;28;20201;-81
2022/08/17 15:26:18;;;;;;;0.10;0.10;;;;;;;;;;5095550;28;20212;-81
2022/08/17 15:28:54;;;;;;;0.10;0.10;;;;;;;;;;5090587;28;20255;-81
2022/08/17 15:31:23;;;;;;;0.20;0.20;;;;;;;;;;5066192;28;20334;-80
2022/08/17 15:33:59;;;;;;;0.20;0.20;;;;;;;;;;5095383;28;20289;-81
2022/08/17 15:36:28;;;;;;;0.20;0.20;;;;;;;;;;5094940;28;20225;-81
2022/08/17 15:38:58;;;;;;;0.20;0.20;;;;;;;;;;5073943;28;20207;-80
2022/08/17 15:41:28;;;;;;;6.87;6.40;;;;;;;;;;5057265;28;20208;-81
2022/08/17 15:43:56;;;;;;;0.20;0.20;;;;;;;;;;5065674;28;20315;-81
2022/08/17 15:46:26;;;;;;;0.20;0.20;;;;;;;;;;5061251;28;20215;-80
2022/08/17 15:48:56;;;;;;;0.27;0.27;;;;;;;;;;5084345;28;20207;-80